sensor_id;sensor_type;location;lat;lon;timestamp;P1;durP1;ratioP1;P2;durP2;ratioP2
79047;SDS011;68680;50.764;6.120;2024-03-02T00:01:16;2.33;;;1.08;;
79047;SDS011;68680;50.764;6.120;2024-03-02T00:03:42;3.60;;;1.02;;
79047;SDS011;68680;50.764;6.120;2024-03-02T00:06:08;2.10;;;0.77;;
79047;SDS011;68680;50.764;6.120;2024-03-02T00:08:34;1.90;;;0.82;;
79047;SDS011;68680;50.764;6.120;2024-03-02T00:11:00;4.20;;;0.98;;
79047;SDS011;68680;50.764;6.120;2024-03-02T00:13:29;5.63;;;1.10;;
79047;SDS011;68680;50.764;6.120;2024-03-02T00:15:55;4.30;;;0.80;;
79047;SDS011;68680;50.764;6.120;2024-03-02T00:18:24;3.08;;;0.90;;
79047;SDS011;68680;50.764;6.120;2024-03-02T00:20:55;2.85;;;1.20;;
79047;SDS011;68680;50.764;6.120;2024-03-02T00:23:22;3.80;;;1.30;;
79047;SDS011;68680;50.764;6.120;2024-03-02T00:25:49;4.05;;;1.58;;
79047;SDS011;68680;50.764;6.120;2024-03-02T00:28:17;1.77;;;0.80;;
79047;SDS011;68680;50.764;6.120;2024-03-02T00:30:56;4.43;;;1.15;;
79047;SDS011;68680;50.764;6.120;2024-03-02T00:33:26;1.35;;;1.17;;
79047;SDS011;68680;50.764;6.120;2024-03-02T00:38:21;4.15;;;1.02;;
79047;SDS011;68680;50.764;6.120;2024-03-02T00:40:47;3.78;;;0.88;;
79047;SDS011;68680;50.764;6.120;2024-03-02T00:43:20;2.72;;;0.90;;
79047;SDS011;68680;50.764;6.120;2024-03-02T00:46:08;4.63;;;1.10;;
79047;SDS011;68680;50.764;6.120;2024-03-02T00:48:36;1.52;;;0.93;;
79047;SDS011;68680;50.764;6.120;2024-03-02T00:51:02;2.92;;;0.93;;
79047;SDS011;68680;50.764;6.120;2024-03-02T00:53:28;2.72;;;1.17;;
79047;SDS011;68680;50.764;6.120;2024-03-02T00:55:56;3.78;;;1.98;;
79047;SDS011;68680;50.764;6.120;2024-03-02T00:58:22;1.42;;;0.90;;
79047;SDS011;68680;50.764;6.120;2024-03-02T01:00:48;1.58;;;1.10;;
79047;SDS011;68680;50.764;6.120;2024-03-02T01:03:15;2.58;;;1.10;;
79047;SDS011;68680;50.764;6.120;2024-03-02T01:05:41;1.52;;;0.73;;
79047;SDS011;68680;50.764;6.120;2024-03-02T01:08:08;2.67;;;0.90;;
79047;SDS011;68680;50.764;6.120;2024-03-02T01:10:34;2.58;;;0.90;;
79047;SDS011;68680;50.764;6.120;2024-03-02T01:13:00;3.47;;;1.00;;
79047;SDS011;68680;50.764;6.120;2024-03-02T01:15:25;3.33;;;0.90;;
79047;SDS011;68680;50.764;6.120;2024-03-02T01:17:51;1.58;;;0.90;;
79047;SDS011;68680;50.764;6.120;2024-03-02T01:20:18;3.03;;;0.85;;
79047;SDS011;68680;50.764;6.120;2024-03-02T01:22:44;5.50;;;1.95;;
79047;SDS011;68680;50.764;6.120;2024-03-02T01:25:10;2.58;;;1.13;;
79047;SDS011;68680;50.764;6.120;2024-03-02T01:27:35;4.43;;;1.10;;
79047;SDS011;68680;50.764;6.120;2024-03-02T01:30:01;2.55;;;0.90;;
79047;SDS011;68680;50.764;6.120;2024-03-02T01:32:27;2.50;;;0.82;;
79047;SDS011;68680;50.764;6.120;2024-03-02T01:34:53;2.17;;;1.13;;
79047;SDS011;68680;50.764;6.120;2024-03-02T01:37:20;3.58;;;1.08;;
79047;SDS011;68680;50.764;6.120;2024-03-02T01:39:46;3.70;;;0.82;;
79047;SDS011;68680;50.764;6.120;2024-03-02T01:42:12;9.63;;;1.75;;
79047;SDS011;68680;50.764;6.120;2024-03-02T01:44:37;2.65;;;1.00;;
79047;SDS011;68680;50.764;6.120;2024-03-02T01:47:04;1.80;;;1.15;;
79047;SDS011;68680;50.764;6.120;2024-03-02T01:49:30;2.42;;;1.20;;
79047;SDS011;68680;50.764;6.120;2024-03-02T01:51:56;1.83;;;1.15;;
79047;SDS011;68680;50.764;6.120;2024-03-02T01:54:23;2.20;;;1.15;;
79047;SDS011;68680;50.764;6.120;2024-03-02T01:56:49;2.83;;;1.13;;
79047;SDS011;68680;50.764;6.120;2024-03-02T01:59:15;5.75;;;1.50;;
79047;SDS011;68680;50.764;6.120;2024-03-02T02:01:41;3.72;;;1.33;;
79047;SDS011;68680;50.764;6.120;2024-03-02T02:04:06;3.72;;;1.45;;
79047;SDS011;68680;50.764;6.120;2024-03-02T02:06:32;4.80;;;1.80;;
79047;SDS011;68680;50.764;6.120;2024-03-02T02:08:58;2.08;;;1.35;;
79047;SDS011;68680;50.764;6.120;2024-03-02T02:11:25;3.38;;;1.35;;
79047;SDS011;68680;50.764;6.120;2024-03-02T02:13:51;5.38;;;1.38;;
79047;SDS011;68680;50.764;6.120;2024-03-02T02:16:17;4.25;;;1.15;;
79047;SDS011;68680;50.764;6.120;2024-03-02T02:18:43;7.65;;;2.33;;
79047;SDS011;68680;50.764;6.120;2024-03-02T02:21:09;2.97;;;1.05;;
79047;SDS011;68680;50.764;6.120;2024-03-02T02:23:36;2.28;;;1.00;;
79047;SDS011;68680;50.764;6.120;2024-03-02T02:26:01;3.15;;;0.98;;
79047;SDS011;68680;50.764;6.120;2024-03-02T02:28:28;1.95;;;0.90;;
79047;SDS011;68680;50.764;6.120;2024-03-02T02:30:54;1.27;;;0.80;;
79047;SDS011;68680;50.764;6.120;2024-03-02T02:33:20;1.65;;;0.60;;
79047;SDS011;68680;50.764;6.120;2024-03-02T02:35:46;1.52;;;0.40;;
79047;SDS011;68680;50.764;6.120;2024-03-02T02:38:12;0.68;;;0.47;;
79047;SDS011;68680;50.764;6.120;2024-03-02T02:40:39;0.90;;;0.50;;
79047;SDS011;68680;50.764;6.120;2024-03-02T02:43:05;0.70;;;0.60;;
79047;SDS011;68680;50.764;6.120;2024-03-02T02:45:30;1.05;;;0.50;;
79047;SDS011;68680;50.764;6.120;2024-03-02T02:47:56;1.00;;;0.55;;
79047;SDS011;68680;50.764;6.120;2024-03-02T02:50:22;2.38;;;0.80;;
79047;SDS011;68680;50.764;6.120;2024-03-02T02:52:47;1.95;;;0.55;;
79047;SDS011;68680;50.764;6.120;2024-03-02T02:55:13;2.03;;;0.50;;
79047;SDS011;68680;50.764;6.120;2024-03-02T02:57:41;1.25;;;0.65;;
79047;SDS011;68680;50.764;6.120;2024-03-02T03:00:07;1.88;;;0.50;;
79047;SDS011;68680;50.764;6.120;2024-03-02T03:02:35;5.38;;;0.90;;
79047;SDS011;68680;50.764;6.120;2024-03-02T03:05:03;0.85;;;0.70;;
79047;SDS011;68680;50.764;6.120;2024-03-02T03:07:29;3.60;;;0.90;;
79047;SDS011;68680;50.764;6.120;2024-03-02T03:09:55;1.45;;;0.82;;
79047;SDS011;68680;50.764;6.120;2024-03-02T03:12:21;3.75;;;0.73;;
79047;SDS011;68680;50.764;6.120;2024-03-02T03:14:48;1.20;;;0.80;;
79047;SDS011;68680;50.764;6.120;2024-03-02T03:17:14;4.75;;;1.00;;
79047;SDS011;68680;50.764;6.120;2024-03-02T03:19:39;2.95;;;1.00;;
79047;SDS011;68680;50.764;6.120;2024-03-02T03:22:05;2.67;;;1.05;;
79047;SDS011;68680;50.764;6.120;2024-03-02T03:24:31;1.00;;;0.80;;
79047;SDS011;68680;50.764;6.120;2024-03-02T03:26:57;0.95;;;0.88;;
79047;SDS011;68680;50.764;6.120;2024-03-02T03:29:22;2.33;;;1.08;;
79047;SDS011;68680;50.764;6.120;2024-03-02T03:31:49;2.60;;;1.52;;
79047;SDS011;68680;50.764;6.120;2024-03-02T03:34:15;4.32;;;1.30;;
79047;SDS011;68680;50.764;6.120;2024-03-02T03:36:41;3.03;;;1.10;;
79047;SDS011;68680;50.764;6.120;2024-03-02T03:39:07;2.47;;;1.10;;
79047;SDS011;68680;50.764;6.120;2024-03-02T03:41:33;5.07;;;1.58;;
79047;SDS011;68680;50.764;6.120;2024-03-02T03:43:58;4.10;;;1.80;;
79047;SDS011;68680;50.764;6.120;2024-03-02T03:46:24;4.75;;;1.45;;
79047;SDS011;68680;50.764;6.120;2024-03-02T03:48:51;4.38;;;1.70;;
79047;SDS011;68680;50.764;6.120;2024-03-02T03:51:17;3.17;;;1.90;;
79047;SDS011;68680;50.764;6.120;2024-03-02T03:53:43;4.53;;;2.00;;
79047;SDS011;68680;50.764;6.120;2024-03-02T03:56:08;4.43;;;2.17;;
79047;SDS011;68680;50.764;6.120;2024-03-02T03:58:34;3.20;;;2.03;;
79047;SDS011;68680;50.764;6.120;2024-03-02T04:01:00;3.10;;;2.08;;
79047;SDS011;68680;50.764;6.120;2024-03-02T04:03:26;6.65;;;2.00;;
79047;SDS011;68680;50.764;6.120;2024-03-02T04:05:53;3.40;;;2.15;;
79047;SDS011;68680;50.764;6.120;2024-03-02T04:08:18;4.30;;;2.65;;
79047;SDS011;68680;50.764;6.120;2024-03-02T04:10:44;2.35;;;2.08;;
79047;SDS011;68680;50.764;6.120;2024-03-02T04:13:10;2.10;;;1.70;;
79047;SDS011;68680;50.764;6.120;2024-03-02T04:15:36;1.05;;;0.80;;
79047;SDS011;68680;50.764;6.120;2024-03-02T04:18:01;1.63;;;0.95;;
79047;SDS011;68680;50.764;6.120;2024-03-02T04:20:27;2.05;;;0.90;;
79047;SDS011;68680;50.764;6.120;2024-03-02T04:22:54;2.22;;;0.60;;
79047;SDS011;68680;50.764;6.120;2024-03-02T04:25:20;0.50;;;0.40;;
79047;SDS011;68680;50.764;6.120;2024-03-02T04:27:46;2.20;;;0.73;;
79047;SDS011;68680;50.764;6.120;2024-03-02T04:30:12;1.55;;;0.50;;
79047;SDS011;68680;50.764;6.120;2024-03-02T04:32:38;1.00;;;0.68;;
79047;SDS011;68680;50.764;6.120;2024-03-02T04:35:04;1.67;;;0.60;;
79047;SDS011;68680;50.764;6.120;2024-03-02T04:37:31;2.20;;;0.40;;
79047;SDS011;68680;50.764;6.120;2024-03-02T04:40:00;0.55;;;0.55;;
79047;SDS011;68680;50.764;6.120;2024-03-02T04:42:26;2.47;;;0.70;;
79047;SDS011;68680;50.764;6.120;2024-03-02T04:44:52;2.22;;;0.60;;
79047;SDS011;68680;50.764;6.120;2024-03-02T04:47:17;2.15;;;0.40;;
79047;SDS011;68680;50.764;6.120;2024-03-02T04:49:43;1.15;;;0.60;;
79047;SDS011;68680;50.764;6.120;2024-03-02T04:52:09;1.80;;;0.40;;
79047;SDS011;68680;50.764;6.120;2024-03-02T04:54:35;1.92;;;0.45;;
79047;SDS011;68680;50.764;6.120;2024-03-02T04:57:02;0.93;;;0.50;;
79047;SDS011;68680;50.764;6.120;2024-03-02T04:59:28;0.43;;;0.30;;
79047;SDS011;68680;50.764;6.120;2024-03-02T05:01:54;0.38;;;0.30;;
79047;SDS011;68680;50.764;6.120;2024-03-02T05:04:20;0.28;;;0.25;;
79047;SDS011;68680;50.764;6.120;2024-03-02T05:06:45;1.27;;;0.28;;
79047;SDS011;68680;50.764;6.120;2024-03-02T05:09:11;2.10;;;0.30;;
79047;SDS011;68680;50.764;6.120;2024-03-02T05:11:37;0.47;;;0.30;;
79047;SDS011;68680;50.764;6.120;2024-03-02T05:14:04;0.73;;;0.20;;
79047;SDS011;68680;50.764;6.120;2024-03-02T05:16:32;2.75;;;0.45;;
79047;SDS011;68680;50.764;6.120;2024-03-02T05:18:58;0.20;;;0.20;;
79047;SDS011;68680;50.764;6.120;2024-03-02T05:21:24;1.73;;;0.30;;
79047;SDS011;68680;50.764;6.120;2024-03-02T05:23:50;0.70;;;0.20;;
79047;SDS011;68680;50.764;6.120;2024-03-02T05:26:15;1.23;;;0.20;;
79047;SDS011;68680;50.764;6.120;2024-03-02T05:28:41;0.30;;;0.30;;
79047;SDS011;68680;50.764;6.120;2024-03-02T05:31:09;3.83;;;0.80;;
79047;SDS011;68680;50.764;6.120;2024-03-02T05:33:37;1.38;;;0.20;;
79047;SDS011;68680;50.764;6.120;2024-03-02T05:36:03;0.20;;;0.20;;
79047;SDS011;68680;50.764;6.120;2024-03-02T05:38:29;1.23;;;0.80;;
79047;SDS011;68680;50.764;6.120;2024-03-02T05:40:55;0.20;;;0.20;;
79047;SDS011;68680;50.764;6.120;2024-03-02T05:43:21;1.33;;;0.20;;
79047;SDS011;68680;50.764;6.120;2024-03-02T05:45:46;0.20;;;0.20;;
79047;SDS011;68680;50.764;6.120;2024-03-02T05:48:13;0.43;;;0.20;;
79047;SDS011;68680;50.764;6.120;2024-03-02T05:50:39;0.63;;;0.57;;
79047;SDS011;68680;50.764;6.120;2024-03-02T05:53:05;2.28;;;0.40;;
79047;SDS011;68680;50.764;6.120;2024-03-02T05:55:31;1.85;;;0.40;;
79047;SDS011;68680;50.764;6.120;2024-03-02T05:57:57;1.30;;;0.30;;
79047;SDS011;68680;50.764;6.120;2024-03-02T06:00:23;0.82;;;0.40;;
79047;SDS011;68680;50.764;6.120;2024-03-02T06:02:48;1.17;;;0.30;;
79047;SDS011;68680;50.764;6.120;2024-03-02T06:05:16;2.05;;;0.40;;
79047;SDS011;68680;50.764;6.120;2024-03-02T06:07:41;0.40;;;0.20;;
79047;SDS011;68680;50.764;6.120;2024-03-02T06:10:08;1.05;;;0.30;;
79047;SDS011;68680;50.764;6.120;2024-03-02T06:12:34;1.52;;;0.30;;
79047;SDS011;68680;50.764;6.120;2024-03-02T06:15:00;1.85;;;0.30;;
79047;SDS011;68680;50.764;6.120;2024-03-02T06:17:26;1.52;;;0.35;;
79047;SDS011;68680;50.764;6.120;2024-03-02T06:19:51;0.50;;;0.30;;
79047;SDS011;68680;50.764;6.120;2024-03-02T06:22:18;1.02;;;0.30;;
79047;SDS011;68680;50.764;6.120;2024-03-02T06:24:44;2.65;;;0.40;;
79047;SDS011;68680;50.764;6.120;2024-03-02T06:27:10;1.65;;;0.45;;
79047;SDS011;68680;50.764;6.120;2024-03-02T06:29:36;1.92;;;0.52;;
79047;SDS011;68680;50.764;6.120;2024-03-02T06:32:01;0.25;;;0.20;;
79047;SDS011;68680;50.764;6.120;2024-03-02T06:34:27;0.47;;;0.30;;
79047;SDS011;68680;50.764;6.120;2024-03-02T06:36:53;0.80;;;0.30;;
79047;SDS011;68680;50.764;6.120;2024-03-02T06:39:20;2.30;;;0.50;;
79047;SDS011;68680;50.764;6.120;2024-03-02T06:41:46;1.65;;;0.30;;
79047;SDS011;68680;50.764;6.120;2024-03-02T06:44:12;1.40;;;0.30;;
79047;SDS011;68680;50.764;6.120;2024-03-02T06:46:42;0.73;;;0.40;;
79047;SDS011;68680;50.764;6.120;2024-03-02T06:49:08;1.05;;;0.30;;
79047;SDS011;68680;50.764;6.120;2024-03-02T06:51:34;3.13;;;0.50;;
79047;SDS011;68680;50.764;6.120;2024-03-02T06:54:00;2.00;;;0.60;;
79047;SDS011;68680;50.764;6.120;2024-03-02T06:56:27;2.40;;;0.35;;
79047;SDS011;68680;50.764;6.120;2024-03-02T06:58:53;3.47;;;0.50;;
79047;SDS011;68680;50.764;6.120;2024-03-02T07:01:18;1.85;;;0.40;;
79047;SDS011;68680;50.764;6.120;2024-03-02T07:03:44;1.45;;;0.35;;
79047;SDS011;68680;50.764;6.120;2024-03-02T07:06:10;2.72;;;0.65;;
79047;SDS011;68680;50.764;6.120;2024-03-02T07:08:36;2.53;;;0.60;;
79047;SDS011;68680;50.764;6.120;2024-03-02T07:11:01;3.50;;;0.40;;
79047;SDS011;68680;50.764;6.120;2024-03-02T07:13:29;0.28;;;0.28;;
79047;SDS011;68680;50.764;6.120;2024-03-02T07:15:55;2.65;;;0.30;;
79047;SDS011;68680;50.764;6.120;2024-03-02T07:18:20;1.27;;;0.52;;
79047;SDS011;68680;50.764;6.120;2024-03-02T07:20:46;1.98;;;0.50;;
79047;SDS011;68680;50.764;6.120;2024-03-02T07:23:12;2.45;;;0.70;;
79047;SDS011;68680;50.764;6.120;2024-03-02T07:25:38;1.48;;;0.77;;
79047;SDS011;68680;50.764;6.120;2024-03-02T07:28:04;1.10;;;0.57;;
79047;SDS011;68680;50.764;6.120;2024-03-02T07:30:32;1.65;;;0.40;;
79047;SDS011;68680;50.764;6.120;2024-03-02T07:32:58;1.08;;;0.47;;
79047;SDS011;68680;50.764;6.120;2024-03-02T07:35:23;1.08;;;0.50;;
79047;SDS011;68680;50.764;6.120;2024-03-02T07:37:49;1.23;;;0.30;;
79047;SDS011;68680;50.764;6.120;2024-03-02T07:40:15;0.80;;;0.40;;
79047;SDS011;68680;50.764;6.120;2024-03-02T07:42:41;1.30;;;0.50;;
79047;SDS011;68680;50.764;6.120;2024-03-02T07:45:07;4.38;;;0.50;;
79047;SDS011;68680;50.764;6.120;2024-03-02T07:47:35;0.77;;;0.38;;
79047;SDS011;68680;50.764;6.120;2024-03-02T07:50:00;2.00;;;1.02;;
79047;SDS011;68680;50.764;6.120;2024-03-02T07:52:27;0.60;;;0.38;;
79047;SDS011;68680;50.764;6.120;2024-03-02T07:54:52;0.75;;;0.50;;
79047;SDS011;68680;50.764;6.120;2024-03-02T07:57:18;3.83;;;0.60;;
79047;SDS011;68680;50.764;6.120;2024-03-02T07:59:44;3.17;;;0.70;;
79047;SDS011;68680;50.764;6.120;2024-03-02T08:02:10;2.42;;;0.70;;
79047;SDS011;68680;50.764;6.120;2024-03-02T08:04:37;2.88;;;0.80;;
79047;SDS011;68680;50.764;6.120;2024-03-02T08:07:03;2.13;;;0.80;;
79047;SDS011;68680;50.764;6.120;2024-03-02T08:09:30;3.95;;;0.82;;
79047;SDS011;68680;50.764;6.120;2024-03-02T08:11:55;3.45;;;0.80;;
79047;SDS011;68680;50.764;6.120;2024-03-02T08:14:21;2.17;;;0.70;;
79047;SDS011;68680;50.764;6.120;2024-03-02T08:16:47;2.47;;;0.70;;
79047;SDS011;68680;50.764;6.120;2024-03-02T08:19:13;3.97;;;0.88;;
79047;SDS011;68680;50.764;6.120;2024-03-02T08:21:40;0.85;;;0.80;;
79047;SDS011;68680;50.764;6.120;2024-03-02T08:24:06;1.25;;;0.90;;
79047;SDS011;68680;50.764;6.120;2024-03-02T08:26:32;2.28;;;0.70;;
79047;SDS011;68680;50.764;6.120;2024-03-02T08:28:58;2.97;;;1.10;;
79047;SDS011;68680;50.764;6.120;2024-03-02T08:31:24;2.22;;;0.77;;
79047;SDS011;68680;50.764;6.120;2024-03-02T08:33:50;2.67;;;1.08;;
79047;SDS011;68680;50.764;6.120;2024-03-02T08:36:15;2.33;;;0.88;;
79047;SDS011;68680;50.764;6.120;2024-03-02T08:38:42;2.03;;;1.08;;
79047;SDS011;68680;50.764;6.120;2024-03-02T08:41:08;4.18;;;0.98;;
79047;SDS011;68680;50.764;6.120;2024-03-02T08:43:34;5.07;;;1.20;;
79047;SDS011;68680;50.764;6.120;2024-03-02T08:46:00;5.00;;;1.00;;
79047;SDS011;68680;50.764;6.120;2024-03-02T08:48:26;2.05;;;0.80;;
79047;SDS011;68680;50.764;6.120;2024-03-02T08:50:51;4.97;;;1.10;;
79047;SDS011;68680;50.764;6.120;2024-03-02T08:53:17;5.18;;;1.52;;
79047;SDS011;68680;50.764;6.120;2024-03-02T08:55:44;3.92;;;0.75;;
79047;SDS011;68680;50.764;6.120;2024-03-02T08:58:10;3.22;;;1.02;;
79047;SDS011;68680;50.764;6.120;2024-03-02T09:00:36;3.75;;;1.23;;
79047;SDS011;68680;50.764;6.120;2024-03-02T09:03:02;3.03;;;0.88;;
79047;SDS011;68680;50.764;6.120;2024-03-02T09:05:29;1.40;;;0.80;;
79047;SDS011;68680;50.764;6.120;2024-03-02T09:07:55;3.03;;;0.93;;
79047;SDS011;68680;50.764;6.120;2024-03-02T09:10:20;3.85;;;0.98;;
79047;SDS011;68680;50.764;6.120;2024-03-02T09:12:48;3.47;;;0.88;;
79047;SDS011;68680;50.764;6.120;2024-03-02T09:15:13;3.28;;;1.00;;
79047;SDS011;68680;50.764;6.120;2024-03-02T09:17:40;3.40;;;0.70;;
79047;SDS011;68680;50.764;6.120;2024-03-02T09:20:06;1.92;;;0.70;;
79047;SDS011;68680;50.764;6.120;2024-03-02T09:22:32;2.42;;;0.60;;
79047;SDS011;68680;50.764;6.120;2024-03-02T09:24:58;1.63;;;0.60;;
79047;SDS011;68680;50.764;6.120;2024-03-02T09:27:24;3.47;;;0.75;;
79047;SDS011;68680;50.764;6.120;2024-03-02T09:29:51;2.83;;;0.60;;
79047;SDS011;68680;50.764;6.120;2024-03-02T09:32:17;4.22;;;0.90;;
79047;SDS011;68680;50.764;6.120;2024-03-02T09:34:42;3.70;;;0.70;;
79047;SDS011;68680;50.764;6.120;2024-03-02T09:37:08;3.10;;;0.50;;
79047;SDS011;68680;50.764;6.120;2024-03-02T09:39:34;3.10;;;0.50;;
79047;SDS011;68680;50.764;6.120;2024-03-02T09:42:00;3.97;;;1.00;;
79047;SDS011;68680;50.764;6.120;2024-03-02T09:44:26;7.75;;;1.00;;
79047;SDS011;68680;50.764;6.120;2024-03-02T09:46:53;2.83;;;0.60;;
79047;SDS011;68680;50.764;6.120;2024-03-02T09:49:19;2.97;;;0.98;;
79047;SDS011;68680;50.764;6.120;2024-03-02T09:51:46;1.42;;;0.47;;
79047;SDS011;68680;50.764;6.120;2024-03-02T09:54:13;2.45;;;1.30;;
79047;SDS011;68680;50.764;6.120;2024-03-02T09:56:41;3.47;;;0.57;;
79047;SDS011;68680;50.764;6.120;2024-03-02T09:59:07;3.85;;;1.00;;
79047;SDS011;68680;50.764;6.120;2024-03-02T10:01:33;2.28;;;0.40;;
79047;SDS011;68680;50.764;6.120;2024-03-02T10:04:00;4.35;;;0.68;;
79047;SDS011;68680;50.764;6.120;2024-03-02T10:06:27;2.15;;;0.77;;
79047;SDS011;68680;50.764;6.120;2024-03-02T10:08:54;4.68;;;0.60;;
79047;SDS011;68680;50.764;6.120;2024-03-02T10:11:27;3.60;;;0.55;;
79047;SDS011;68680;50.764;6.120;2024-03-02T10:14:03;6.28;;;1.02;;
79047;SDS011;68680;50.764;6.120;2024-03-02T10:16:30;5.38;;;0.85;;
79047;SDS011;68680;50.764;6.120;2024-03-02T10:18:56;3.05;;;0.47;;
79047;SDS011;68680;50.764;6.120;2024-03-02T10:21:23;2.88;;;0.50;;
79047;SDS011;68680;50.764;6.120;2024-03-02T10:23:49;2.15;;;0.68;;
79047;SDS011;68680;50.764;6.120;2024-03-02T10:26:16;3.17;;;0.73;;
79047;SDS011;68680;50.764;6.120;2024-03-02T10:28:45;2.80;;;0.60;;
79047;SDS011;68680;50.764;6.120;2024-03-02T10:31:12;2.92;;;0.70;;
79047;SDS011;68680;50.764;6.120;2024-03-02T10:33:38;2.97;;;0.65;;
79047;SDS011;68680;50.764;6.120;2024-03-02T10:36:05;1.00;;;0.52;;
79047;SDS011;68680;50.764;6.120;2024-03-02T10:38:32;2.28;;;0.57;;
79047;SDS011;68680;50.764;6.120;2024-03-02T10:40:59;2.88;;;0.60;;
79047;SDS011;68680;50.764;6.120;2024-03-02T10:43:26;4.00;;;1.02;;
79047;SDS011;68680;50.764;6.120;2024-03-02T10:45:52;4.38;;;0.70;;
79047;SDS011;68680;50.764;6.120;2024-03-02T10:48:20;2.33;;;0.52;;
79047;SDS011;68680;50.764;6.120;2024-03-02T10:50:46;4.78;;;0.88;;
79047;SDS011;68680;50.764;6.120;2024-03-02T10:53:11;1.80;;;0.90;;
79047;SDS011;68680;50.764;6.120;2024-03-02T10:55:39;4.55;;;1.13;;
79047;SDS011;68680;50.764;6.120;2024-03-02T10:58:05;2.97;;;0.60;;
79047;SDS011;68680;50.764;6.120;2024-03-02T11:00:33;2.90;;;0.47;;
79047;SDS011;68680;50.764;6.120;2024-03-02T11:03:04;3.35;;;0.40;;
79047;SDS011;68680;50.764;6.120;2024-03-02T11:05:31;2.15;;;0.68;;
79047;SDS011;68680;50.764;6.120;2024-03-02T11:08:06;2.88;;;0.50;;
79047;SDS011;68680;50.764;6.120;2024-03-02T11:10:41;2.25;;;0.60;;
79047;SDS011;68680;50.764;6.120;2024-03-02T11:13:15;3.60;;;0.52;;
79047;SDS011;68680;50.764;6.120;2024-03-02T11:15:47;3.28;;;0.55;;
79047;SDS011;68680;50.764;6.120;2024-03-02T11:18:14;2.35;;;0.50;;
79047;SDS011;68680;50.764;6.120;2024-03-02T11:20:41;2.72;;;0.63;;
79047;SDS011;68680;50.764;6.120;2024-03-02T11:23:08;5.90;;;0.50;;
79047;SDS011;68680;50.764;6.120;2024-03-02T11:25:34;3.30;;;0.70;;
79047;SDS011;68680;50.764;6.120;2024-03-02T11:28:05;2.40;;;0.65;;
79047;SDS011;68680;50.764;6.120;2024-03-02T11:33:22;3.58;;;0.50;;
79047;SDS011;68680;50.764;6.120;2024-03-02T11:35:49;2.75;;;0.47;;
79047;SDS011;68680;50.764;6.120;2024-03-02T11:38:15;1.15;;;0.60;;
79047;SDS011;68680;50.764;6.120;2024-03-02T11:40:43;2.67;;;0.40;;
79047;SDS011;68680;50.764;6.120;2024-03-02T11:43:10;4.40;;;0.68;;
79047;SDS011;68680;50.764;6.120;2024-03-02T11:45:36;2.38;;;0.90;;
79047;SDS011;68680;50.764;6.120;2024-03-02T11:48:04;4.25;;;0.55;;
79047;SDS011;68680;50.764;6.120;2024-03-02T11:50:34;2.58;;;0.52;;
79047;SDS011;68680;50.764;6.120;2024-03-02T11:53:01;3.42;;;0.40;;
79047;SDS011;68680;50.764;6.120;2024-03-02T11:55:29;3.85;;;0.70;;
79047;SDS011;68680;50.764;6.120;2024-03-02T11:57:56;2.63;;;0.50;;
79047;SDS011;68680;50.764;6.120;2024-03-02T12:00:25;1.05;;;0.77;;
79047;SDS011;68680;50.764;6.120;2024-03-02T12:03:00;3.30;;;0.57;;
79047;SDS011;68680;50.764;6.120;2024-03-02T12:05:28;1.05;;;0.60;;
79047;SDS011;68680;50.764;6.120;2024-03-02T12:07:56;1.08;;;0.65;;
79047;SDS011;68680;50.764;6.120;2024-03-02T12:10:23;1.80;;;0.63;;
79047;SDS011;68680;50.764;6.120;2024-03-02T12:12:54;1.50;;;0.60;;
79047;SDS011;68680;50.764;6.120;2024-03-02T12:15:22;1.52;;;0.60;;
79047;SDS011;68680;50.764;6.120;2024-03-02T12:17:52;4.40;;;1.70;;
79047;SDS011;68680;50.764;6.120;2024-03-02T12:20:19;5.90;;;3.33;;
79047;SDS011;68680;50.764;6.120;2024-03-02T12:22:45;5.60;;;2.53;;
79047;SDS011;68680;50.764;6.120;2024-03-02T12:25:11;1.80;;;1.00;;
79047;SDS011;68680;50.764;6.120;2024-03-02T12:27:37;2.10;;;0.60;;
79047;SDS011;68680;50.764;6.120;2024-03-02T12:30:05;2.38;;;0.68;;
79047;SDS011;68680;50.764;6.120;2024-03-02T12:32:33;2.50;;;0.70;;
79047;SDS011;68680;50.764;6.120;2024-03-02T12:34:59;2.58;;;0.30;;
79047;SDS011;68680;50.764;6.120;2024-03-02T12:37:25;0.70;;;0.47;;
79047;SDS011;68680;50.764;6.120;2024-03-02T12:39:51;1.00;;;0.75;;
79047;SDS011;68680;50.764;6.120;2024-03-02T12:42:18;2.88;;;0.60;;
79047;SDS011;68680;50.764;6.120;2024-03-02T12:44:43;2.00;;;0.40;;
79047;SDS011;68680;50.764;6.120;2024-03-02T12:47:09;3.97;;;0.60;;
79047;SDS011;68680;50.764;6.120;2024-03-02T12:49:36;2.15;;;0.50;;
79047;SDS011;68680;50.764;6.120;2024-03-02T12:52:05;2.58;;;0.70;;
79047;SDS011;68680;50.764;6.120;2024-03-02T12:54:31;1.80;;;0.52;;
79047;SDS011;68680;50.764;6.120;2024-03-02T12:56:58;1.52;;;0.50;;
79047;SDS011;68680;50.764;6.120;2024-03-02T12:59:24;2.42;;;0.75;;
79047;SDS011;68680;50.764;6.120;2024-03-02T13:01:51;2.78;;;1.13;;
79047;SDS011;68680;50.764;6.120;2024-03-02T13:04:17;2.63;;;0.80;;
79047;SDS011;68680;50.764;6.120;2024-03-02T13:06:48;5.35;;;3.25;;
79047;SDS011;68680;50.764;6.120;2024-03-02T13:09:14;6.72;;;3.58;;
79047;SDS011;68680;50.764;6.120;2024-03-02T13:11:41;3.33;;;2.28;;
79047;SDS011;68680;50.764;6.120;2024-03-02T13:14:07;4.28;;;2.15;;
79047;SDS011;68680;50.764;6.120;2024-03-02T13:16:37;3.42;;;2.05;;
79047;SDS011;68680;50.764;6.120;2024-03-02T13:19:03;6.95;;;4.30;;
79047;SDS011;68680;50.764;6.120;2024-03-02T13:21:32;2.58;;;1.30;;
79047;SDS011;68680;50.764;6.120;2024-03-02T13:23:59;2.83;;;0.82;;
79047;SDS011;68680;50.764;6.120;2024-03-02T13:26:25;1.00;;;0.90;;
79047;SDS011;68680;50.764;6.120;2024-03-02T13:28:51;1.60;;;0.75;;
79047;SDS011;68680;50.764;6.120;2024-03-02T13:31:16;2.30;;;1.30;;
79047;SDS011;68680;50.764;6.120;2024-03-02T13:33:42;1.67;;;0.60;;
79047;SDS011;68680;50.764;6.120;2024-03-02T13:36:08;2.28;;;1.08;;
79047;SDS011;68680;50.764;6.120;2024-03-02T13:38:34;2.15;;;0.85;;
79047;SDS011;68680;50.764;6.120;2024-03-02T13:41:01;1.38;;;0.80;;
79047;SDS011;68680;50.764;6.120;2024-03-02T13:43:27;4.13;;;0.70;;
79047;SDS011;68680;50.764;6.120;2024-03-02T13:45:53;1.42;;;0.85;;
79047;SDS011;68680;50.764;6.120;2024-03-02T13:48:19;6.38;;;0.70;;
79047;SDS011;68680;50.764;6.120;2024-03-02T13:50:44;2.05;;;0.50;;
79047;SDS011;68680;50.764;6.120;2024-03-02T13:53:10;2.50;;;0.60;;
79047;SDS011;68680;50.764;6.120;2024-03-02T13:55:37;1.17;;;0.90;;
79047;SDS011;68680;50.764;6.120;2024-03-02T13:58:04;2.65;;;1.33;;
79047;SDS011;68680;50.764;6.120;2024-03-02T14:00:30;1.25;;;0.90;;
79047;SDS011;68680;50.764;6.120;2024-03-02T14:02:56;2.58;;;0.88;;
79047;SDS011;68680;50.764;6.120;2024-03-02T14:05:21;2.85;;;2.65;;
79047;SDS011;68680;50.764;6.120;2024-03-02T14:07:47;1.73;;;0.50;;
79047;SDS011;68680;50.764;6.120;2024-03-02T14:10:13;1.27;;;0.70;;
79047;SDS011;68680;50.764;6.120;2024-03-02T14:12:40;0.70;;;0.60;;
79047;SDS011;68680;50.764;6.120;2024-03-02T14:15:08;3.42;;;0.93;;
79047;SDS011;68680;50.764;6.120;2024-03-02T14:17:34;3.30;;;2.33;;
79047;SDS011;68680;50.764;6.120;2024-03-02T14:20:00;3.78;;;1.73;;
79047;SDS011;68680;50.764;6.120;2024-03-02T14:22:26;1.10;;;0.90;;
79047;SDS011;68680;50.764;6.120;2024-03-02T14:24:51;1.67;;;1.23;;
79047;SDS011;68680;50.764;6.120;2024-03-02T14:27:17;1.38;;;0.80;;
79047;SDS011;68680;50.764;6.120;2024-03-02T14:29:43;2.88;;;0.90;;
79047;SDS011;68680;50.764;6.120;2024-03-02T14:32:10;6.28;;;1.10;;
79047;SDS011;68680;50.764;6.120;2024-03-02T14:34:36;0.90;;;0.60;;
79047;SDS011;68680;50.764;6.120;2024-03-02T14:37:02;1.27;;;0.70;;
79047;SDS011;68680;50.764;6.120;2024-03-02T14:39:28;5.82;;;0.85;;
79047;SDS011;68680;50.764;6.120;2024-03-02T14:41:54;1.90;;;0.80;;
79047;SDS011;68680;50.764;6.120;2024-03-02T14:44:20;2.58;;;0.52;;
79047;SDS011;68680;50.764;6.120;2024-03-02T14:46:46;1.05;;;0.60;;
79047;SDS011;68680;50.764;6.120;2024-03-02T14:49:14;2.55;;;0.90;;